createdAt,value
2019-04-10T00:00:08.861Z,3.74
2019-04-10T00:01:09.632Z,3.71
2019-04-10T00:02:09.103Z,3.71
2019-04-10T00:03:22.294Z,3.70
2019-04-10T00:04:10.487Z,3.74
2019-04-10T00:05:09.707Z,3.59
2019-04-10T00:06:08.835Z,3.61
2019-04-10T00:07:14.961Z,3.56
2019-04-10T00:08:10.181Z,3.61
2019-04-10T00:09:08.788Z,3.49
2019-04-10T00:10:09.730Z,3.49
2019-04-10T00:11:08.785Z,3.49
2019-04-10T00:12:09.502Z,3.48
2019-04-10T00:13:08.790Z,3.48
2019-04-10T00:14:08.819Z,3.55
2019-04-10T00:15:09.260Z,3.53
2019-04-10T00:16:08.714Z,3.52
2019-04-10T00:17:08.992Z,3.52
2019-04-10T00:18:09.443Z,3.48
2019-04-10T00:19:08.795Z,3.52
2019-04-10T00:20:08.682Z,3.49
2019-04-10T00:21:09.118Z,3.46
2019-04-10T00:22:09.692Z,3.50
2019-04-10T00:23:08.980Z,3.45
2019-04-10T00:24:08.629Z,3.46
2019-04-10T00:25:08.640Z,3.41
2019-04-10T00:26:09.818Z,3.49
2019-04-10T00:27:08.640Z,3.43
2019-04-10T00:28:09.508Z,3.49
2019-04-10T00:29:08.602Z,3.43
2019-04-10T00:30:09.077Z,3.43
2019-04-10T00:31:09.462Z,3.40
2019-04-10T00:32:08.596Z,3.40
2019-04-10T00:33:10.177Z,3.43
2019-04-10T00:34:09.412Z,3.37
2019-04-10T00:35:08.497Z,3.37
2019-04-10T00:36:08.518Z,3.31
2019-04-10T00:37:21.279Z,3.30
2019-04-10T00:38:09.533Z,3.33
2019-04-10T00:39:08.659Z,3.26
2019-04-10T00:40:08.829Z,3.29
2019-04-10T00:41:08.496Z,3.22
2019-04-10T00:42:08.550Z,3.29
2019-04-10T00:43:08.718Z,3.31
2019-04-10T00:44:08.422Z,3.26
2019-04-10T00:45:09.149Z,3.29
2019-04-10T00:46:08.453Z,3.26
2019-04-10T00:47:08.721Z,3.31
2019-04-10T00:48:08.438Z,3.16
2019-04-10T00:49:09.239Z,3.16
2019-04-10T00:50:08.577Z,3.11
2019-04-10T00:51:08.871Z,3.06
2019-04-10T00:52:08.353Z,3.13
2019-04-10T00:53:08.520Z,3.03
2019-04-10T00:54:08.305Z,2.94
2019-04-10T00:55:08.349Z,2.91
2019-04-10T00:56:08.435Z,3.01
2019-04-10T00:57:09.248Z,3.01
2019-04-10T00:58:08.288Z,2.97
2019-04-10T00:59:08.883Z,2.94
2019-04-10T01:00:08.567Z,2.97
2019-04-10T01:01:08.245Z,2.97
2019-04-10T01:02:08.273Z,3.03
2019-04-10T01:03:09.281Z,3.00
2019-04-10T01:04:08.228Z,2.91
2019-04-10T01:05:09.038Z,2.95
2019-04-10T01:06:08.223Z,2.93
2019-04-10T01:07:08.643Z,2.87
2019-04-10T01:08:08.740Z,2.90
2019-04-10T01:09:09.030Z,2.87
2019-04-10T01:10:08.257Z,2.87
2019-04-10T01:11:08.570Z,2.91
2019-04-10T01:12:08.120Z,2.94
2019-04-10T01:13:08.437Z,2.94
2019-04-10T01:14:08.095Z,2.85
2019-04-10T01:15:08.104Z,2.83
2019-04-10T01:16:09.151Z,2.83
2019-04-10T01:17:08.345Z,2.77
2019-04-10T01:18:08.113Z,2.76
2019-04-10T01:19:08.053Z,2.88
2019-04-10T01:20:09.078Z,2.83
2019-04-10T01:21:08.326Z,2.75
2019-04-10T01:22:08.626Z,2.73
2019-04-10T01:23:08.025Z,2.70
2019-04-10T01:24:08.998Z,2.64
2019-04-10T01:25:08.268Z,2.72
2019-04-10T01:26:07.960Z,2.70
2019-04-10T01:27:08.049Z,2.62
2019-04-10T01:28:08.744Z,2.75
2019-04-10T01:29:08.007Z,2.65
2019-04-10T01:30:08.678Z,2.69
2019-04-10T01:31:07.919Z,2.65
2019-04-10T01:32:07.962Z,2.72
2019-04-10T01:33:08.231Z,2.62
2019-04-10T01:34:07.932Z,2.65
2019-04-10T01:35:07.927Z,2.62
2019-04-10T01:36:08.865Z,2.65
2019-04-10T01:37:08.320Z,2.68
2019-04-10T01:38:07.912Z,2.68
2019-04-10T01:39:08.715Z,2.64
2019-04-10T01:40:07.865Z,2.64
2019-04-10T01:41:07.821Z,2.61
2019-04-10T01:42:08.205Z,2.64
2019-04-10T01:43:12.839Z,2.61
2019-04-10T01:44:08.798Z,2.64
2019-04-10T01:45:07.782Z,2.59
2019-04-10T01:46:08.356Z,2.62
2019-04-10T01:47:07.853Z,2.55
2019-04-10T01:48:07.961Z,2.52
2019-04-10T01:49:07.729Z,2.47
2019-04-10T01:50:08.329Z,2.41
2019-04-10T01:51:08.700Z,2.44
2019-04-10T01:52:08.828Z,2.51
2019-04-10T01:53:07.702Z,2.39
2019-04-10T01:54:07.676Z,2.51
2019-04-10T01:55:19.138Z,2.44
2019-04-10T01:56:21.249Z,2.46
2019-04-10T01:57:08.645Z,2.44
2019-04-10T01:58:08.525Z,2.33
2019-04-10T01:59:07.784Z,2.37
2019-04-10T02:00:07.625Z,2.44
2019-04-10T02:01:08.106Z,2.33
2019-04-10T02:02:09.209Z,2.37
2019-04-10T02:03:07.727Z,2.34
2019-04-10T02:04:07.574Z,2.33
2019-04-10T02:05:08.155Z,2.34
2019-04-10T02:06:07.586Z,2.37
2019-04-10T02:07:07.690Z,2.32
2019-04-10T02:08:10.347Z,2.40
2019-04-10T02:09:08.506Z,2.37
2019-04-10T02:10:07.903Z,2.37
2019-04-10T02:11:07.506Z,2.36
2019-04-10T02:12:07.523Z,2.37
2019-04-10T02:13:07.500Z,2.36
2019-04-10T02:14:07.823Z,2.37
2019-04-10T02:15:11.241Z,2.34
2019-04-10T02:16:08.451Z,2.36
2019-04-10T02:17:08.435Z,2.32
2019-04-10T02:18:07.403Z,2.34
2019-04-10T02:19:08.181Z,2.30
2019-04-10T02:20:07.423Z,2.25
2019-04-10T02:21:07.553Z,2.25
2019-04-10T02:22:08.542Z,2.21
2019-04-10T02:23:07.463Z,2.25
2019-04-10T02:24:07.373Z,2.21
2019-04-10T02:25:07.372Z,2.23
2019-04-10T02:26:07.476Z,2.19
2019-04-10T02:27:07.864Z,2.15
2019-04-10T02:28:07.404Z,2.22
2019-04-10T02:29:07.388Z,2.22
2019-04-10T02:30:09.742Z,2.22
2019-04-10T02:31:07.359Z,2.12
2019-04-10T02:32:08.050Z,2.10
2019-04-10T02:33:08.362Z,2.16
2019-04-10T02:34:08.959Z,2.16
2019-04-10T02:35:10.518Z,2.18
2019-04-10T02:36:08.548Z,2.22
2019-04-10T02:37:08.573Z,2.30
2019-04-10T02:38:26.122Z,2.23
2019-04-10T02:39:19.186Z,2.32
2019-04-10T02:40:09.893Z,2.25
2019-04-10T02:41:08.483Z,2.16
2019-04-10T02:42:08.243Z,2.19
2019-04-10T02:43:08.407Z,2.18
2019-04-10T02:44:08.057Z,2.21
2019-04-10T02:45:08.444Z,2.23
2019-04-10T02:46:08.419Z,2.28
2019-04-10T02:47:07.185Z,2.21
2019-04-10T02:48:08.023Z,2.21
2019-04-10T02:49:08.262Z,2.26
2019-04-10T02:50:08.335Z,2.19
2019-04-10T02:51:07.693Z,2.19
2019-04-10T02:52:08.655Z,2.19
2019-04-10T02:53:07.754Z,2.16
2019-04-10T02:54:07.049Z,2.19
2019-04-10T02:55:07.788Z,2.21
2019-04-10T02:56:07.257Z,2.25
2019-04-10T02:57:07.470Z,2.18
2019-04-10T02:58:07.979Z,2.19
2019-04-10T02:59:07.420Z,2.16
2019-04-10T03:00:08.329Z,2.22
2019-04-10T03:01:07.105Z,2.21
2019-04-10T03:02:08.322Z,2.21
2019-04-10T03:03:07.323Z,2.23
2019-04-10T03:04:09.017Z,2.21
2019-04-10T03:05:07.211Z,2.21
2019-04-10T03:06:07.364Z,2.23
2019-04-10T03:07:07.628Z,2.26
2019-04-10T03:08:07.513Z,2.18
2019-04-10T03:09:19.170Z,2.23
2019-04-10T03:10:18.957Z,2.23
2019-04-10T03:11:11.550Z,2.26
2019-04-10T03:12:08.510Z,2.23
2019-04-10T03:13:06.891Z,2.25
2019-04-10T03:14:07.979Z,2.34
2019-04-10T03:15:08.635Z,2.26
2019-04-10T03:16:07.517Z,2.32
2019-04-10T03:17:07.977Z,2.23
2019-04-10T03:18:06.821Z,2.21
2019-04-10T03:19:07.438Z,2.28
2019-04-10T03:20:07.832Z,2.32
2019-04-10T03:21:06.903Z,2.19
2019-04-10T03:22:07.901Z,2.14
2019-04-10T03:23:07.325Z,2.07
2019-04-10T03:24:06.750Z,2.05
2019-04-10T03:25:06.755Z,2.03
2019-04-10T03:26:07.615Z,1.98
2019-04-10T03:27:06.922Z,2.03
2019-04-10T03:28:07.118Z,1.95
2019-04-10T03:29:07.453Z,2.03
2019-04-10T03:30:07.612Z,1.89
2019-04-10T03:31:07.955Z,1.86
2019-04-10T03:32:07.190Z,1.86
2019-04-10T03:33:11.400Z,1.86
2019-04-10T03:34:09.247Z,1.88
2019-04-10T03:35:06.652Z,1.93
2019-04-10T03:36:07.362Z,1.82
2019-04-10T03:37:07.593Z,1.78
2019-04-10T03:38:07.575Z,1.75
2019-04-10T03:39:07.922Z,1.71
2019-04-10T03:40:07.027Z,1.75
2019-04-10T03:41:06.555Z,1.81
2019-04-10T03:42:06.602Z,1.81
2019-04-10T03:43:07.604Z,1.74
2019-04-10T03:44:06.559Z,1.79
2019-04-10T03:45:07.546Z,1.76
2019-04-10T03:46:06.556Z,1.84
2019-04-10T03:47:07.125Z,1.74
2019-04-10T03:48:06.531Z,1.81
2019-04-10T03:49:06.538Z,1.74
2019-04-10T03:50:06.709Z,1.82
2019-04-10T03:51:06.506Z,1.70
2019-04-10T03:52:07.248Z,1.66
2019-04-10T03:53:07.547Z,1.70
2019-04-10T03:54:06.879Z,1.64
2019-04-10T03:55:06.433Z,1.63
2019-04-10T03:56:07.489Z,1.60
2019-04-10T03:57:06.665Z,1.58
2019-04-10T03:58:07.140Z,1.61
2019-04-10T03:59:06.423Z,1.60
2019-04-10T04:00:06.956Z,1.61
2019-04-10T04:01:06.905Z,1.63
2019-04-10T04:02:07.235Z,1.58
2019-04-10T04:03:06.536Z,1.63
2019-04-10T04:04:07.067Z,1.66
2019-04-10T04:05:06.565Z,1.61
2019-04-10T04:06:07.034Z,1.56
2019-04-10T04:07:07.073Z,1.58
2019-04-10T04:08:07.477Z,1.66
2019-04-10T04:09:10.851Z,1.50
2019-04-10T04:10:07.285Z,1.60
2019-04-10T04:11:07.187Z,1.56
2019-04-10T04:12:06.380Z,1.57
2019-04-10T04:13:07.507Z,1.61
2019-04-10T04:14:06.290Z,1.60
2019-04-10T04:15:07.055Z,1.61
2019-04-10T04:16:06.759Z,1.58
2019-04-10T04:17:06.250Z,1.61
2019-04-10T04:18:06.191Z,1.61
2019-04-10T04:19:06.174Z,1.57
2019-04-10T04:20:06.485Z,1.68
2019-04-10T04:21:06.152Z,1.60
2019-04-10T04:22:06.200Z,1.63
2019-04-10T04:23:06.134Z,1.60
2019-04-10T04:24:07.128Z,1.63
2019-04-10T04:25:06.751Z,1.63
2019-04-10T04:26:07.184Z,1.63
2019-04-10T04:27:06.216Z,1.58
2019-04-10T04:28:06.663Z,1.66
2019-04-10T04:29:06.094Z,1.57
2019-04-10T04:30:06.387Z,1.58
2019-04-10T04:31:07.170Z,1.64
2019-04-10T04:32:06.980Z,1.61
2019-04-10T04:33:06.654Z,1.61
2019-04-10T04:34:06.225Z,1.67
2019-04-10T04:35:06.029Z,1.60
2019-04-10T04:36:06.172Z,1.60
2019-04-10T04:37:06.033Z,1.64
2019-04-10T04:38:16.204Z,1.61
2019-04-10T04:39:17.654Z,1.58
2019-04-10T04:40:06.940Z,1.60
2019-04-10T04:41:06.846Z,1.66
2019-04-10T04:42:06.955Z,1.57
2019-04-10T04:43:06.023Z,1.60
2019-04-10T04:44:06.064Z,1.66
2019-04-10T04:45:05.983Z,1.67
2019-04-10T04:46:16.000Z,1.63
2019-04-10T04:47:06.319Z,1.70
2019-04-10T04:48:05.864Z,1.68
2019-04-10T04:49:06.807Z,1.66
2019-04-10T04:50:05.846Z,1.66
2019-04-10T04:51:06.725Z,1.64
2019-04-10T04:52:07.065Z,1.67
2019-04-10T04:53:06.623Z,1.67
2019-04-10T04:54:06.693Z,1.63
2019-04-10T04:55:06.025Z,1.81
2019-04-10T04:56:05.996Z,1.79
2019-04-10T04:57:06.581Z,1.71
2019-04-10T04:58:06.206Z,1.67
2019-04-10T04:59:05.987Z,1.79
2019-04-10T05:00:06.265Z,1.82
2019-04-10T05:01:06.277Z,1.79
2019-04-10T05:02:05.903Z,1.86
2019-04-10T05:03:05.727Z,1.89
2019-04-10T05:04:06.762Z,1.89
2019-04-10T05:05:06.627Z,1.98
2019-04-10T05:06:06.004Z,2.04
2019-04-10T05:07:06.297Z,2.15
2019-04-10T05:08:06.865Z,2.05
2019-04-10T05:09:06.581Z,2.07
2019-04-10T05:10:06.931Z,2.16
2019-04-10T05:11:06.436Z,2.18
2019-04-10T05:12:05.654Z,2.23
2019-04-10T05:13:06.137Z,2.19
2019-04-10T05:14:06.936Z,2.19
2019-04-10T05:15:13.255Z,2.25
2019-04-10T05:16:06.142Z,2.18
2019-04-10T05:17:05.974Z,2.23
2019-04-10T05:18:06.241Z,2.26
2019-04-10T05:19:05.551Z,2.19
2019-04-10T05:20:05.622Z,2.23
2019-04-10T05:21:05.605Z,2.25
2019-04-10T05:22:06.024Z,2.36
2019-04-10T05:23:06.196Z,2.36
2019-04-10T05:24:05.502Z,2.39
2019-04-10T05:25:05.490Z,2.33
2019-04-10T05:26:06.118Z,2.39
2019-04-10T05:27:05.801Z,2.50
2019-04-10T05:28:05.806Z,2.39
2019-04-10T05:29:05.519Z,2.41
2019-04-10T05:30:06.227Z,2.51
2019-04-10T05:31:06.640Z,2.50
2019-04-10T05:32:05.493Z,2.64
2019-04-10T05:33:06.291Z,2.64
2019-04-10T05:34:05.417Z,2.62
2019-04-10T05:35:08.118Z,2.61
2019-04-10T05:36:06.933Z,2.72
2019-04-10T05:37:05.476Z,2.62
2019-04-10T05:38:05.411Z,2.79
2019-04-10T05:39:06.298Z,2.85
2019-04-10T05:40:05.545Z,2.82
2019-04-10T05:41:05.325Z,2.87
2019-04-10T05:42:06.315Z,2.88
2019-04-10T05:43:05.842Z,2.85
2019-04-10T05:44:05.295Z,2.90
2019-04-10T05:45:05.339Z,2.93
2019-04-10T05:46:05.275Z,3.05
2019-04-10T05:47:05.429Z,3.05
2019-04-10T05:48:05.265Z,3.03
2019-04-10T05:49:05.239Z,3.15
2019-04-10T05:50:06.101Z,3.05
2019-04-10T05:51:07.477Z,3.13
2019-04-10T05:52:06.138Z,3.15
2019-04-10T05:53:05.288Z,3.12
2019-04-10T05:54:06.232Z,3.16
2019-04-10T05:55:06.253Z,3.13
2019-04-10T05:56:05.613Z,3.18
2019-04-10T05:57:06.099Z,3.22
2019-04-10T05:58:05.676Z,3.27
2019-04-10T05:59:05.280Z,3.27
2019-04-10T06:00:05.200Z,3.27
2019-04-10T06:01:05.340Z,3.34
2019-04-10T06:02:06.531Z,3.49
2019-04-10T06:03:06.181Z,3.59
2019-04-10T06:04:05.199Z,3.78
2019-04-10T06:05:05.644Z,3.85
2019-04-10T06:06:06.175Z,3.84
2019-04-10T06:07:05.307Z,3.94
2019-04-10T06:08:05.709Z,3.89
2019-04-10T06:09:05.066Z,3.91
2019-04-10T06:10:08.651Z,3.96
2019-04-10T06:11:06.657Z,4.00
2019-04-10T06:12:05.810Z,3.99
2019-04-10T06:13:05.029Z,4.13
2019-04-10T06:14:05.259Z,4.12
2019-04-10T06:15:05.046Z,4.14
2019-04-10T06:16:05.615Z,4.24
2019-04-10T06:17:05.979Z,4.31
2019-04-10T06:18:05.056Z,4.39
2019-04-10T06:19:04.993Z,4.34
2019-04-10T06:20:05.048Z,4.45
2019-04-10T06:21:05.143Z,4.39
2019-04-10T06:22:05.256Z,4.45
2019-04-10T06:23:05.283Z,4.46
2019-04-10T06:24:05.834Z,4.52
2019-04-10T06:25:07.868Z,4.53
2019-04-10T06:26:05.284Z,4.60
2019-04-10T06:27:04.918Z,4.66
2019-04-10T06:28:05.321Z,4.67
2019-04-10T06:29:05.009Z,4.60
2019-04-10T06:30:05.709Z,4.70
2019-04-10T06:31:06.143Z,4.74
2019-04-10T06:32:05.314Z,4.82
2019-04-10T06:33:04.785Z,4.78
2019-04-10T06:34:04.793Z,4.75
2019-04-10T06:35:05.711Z,4.86
2019-04-10T06:36:04.987Z,4.82
2019-04-10T06:37:06.045Z,4.92
2019-04-10T06:38:04.733Z,4.97
2019-04-10T06:39:04.745Z,5.07
2019-04-10T06:40:13.183Z,5.15
2019-04-10T06:41:06.270Z,5.15
2019-04-10T06:42:04.775Z,5.18
2019-04-10T06:43:04.686Z,5.12
2019-04-10T06:44:05.679Z,5.16
2019-04-10T06:45:05.742Z,5.19
2019-04-10T06:46:04.665Z,5.19
2019-04-10T06:47:04.633Z,5.16
2019-04-10T06:48:04.763Z,5.16
2019-04-10T06:49:05.570Z,5.19
2019-04-10T06:50:04.615Z,5.16
2019-04-10T06:51:04.596Z,5.34
2019-04-10T06:52:04.648Z,5.29
2019-04-10T06:53:04.614Z,5.36
2019-04-10T06:54:08.106Z,5.51
2019-04-10T06:55:05.547Z,5.49
2019-04-10T06:56:04.898Z,5.46
2019-04-10T06:57:04.534Z,5.52
2019-04-10T06:58:04.722Z,5.49
2019-04-10T06:59:04.654Z,5.44
2019-04-10T07:00:04.509Z,5.52
2019-04-10T07:01:04.497Z,5.51
2019-04-10T07:02:16.668Z,5.58
2019-04-10T07:03:06.484Z,5.55
2019-04-10T07:04:07.553Z,5.56
2019-04-10T07:05:07.447Z,5.62
2019-04-10T07:06:12.274Z,5.77
2019-04-10T07:07:10.694Z,5.77
2019-04-10T07:08:12.386Z,5.79
2019-04-10T07:09:05.469Z,5.70
2019-04-10T07:10:18.922Z,5.65
2019-04-10T07:11:09.054Z,5.73
2019-04-10T07:12:05.394Z,5.80
2019-04-10T07:13:07.742Z,5.91
2019-04-10T07:14:09.928Z,5.83
2019-04-10T07:15:05.406Z,5.92
2019-04-10T07:16:04.341Z,5.91
2019-04-10T07:17:06.954Z,5.99
2019-04-10T07:18:04.308Z,5.95
2019-04-10T07:19:07.235Z,5.91
2019-04-10T07:20:05.336Z,5.94
2019-04-10T07:21:04.302Z,6.06
2019-04-10T07:22:08.645Z,6.16
2019-04-10T07:23:05.274Z,6.16
2019-04-10T07:24:06.738Z,6.19
2019-04-10T07:25:04.734Z,6.29
2019-04-10T07:26:04.259Z,6.26
2019-04-10T07:27:05.289Z,6.31
2019-04-10T07:28:07.378Z,6.20
2019-04-10T07:29:04.652Z,6.28
2019-04-10T07:30:04.205Z,6.25
2019-04-10T07:31:07.255Z,6.28
2019-04-10T07:32:07.830Z,6.29
2019-04-10T07:33:04.172Z,6.35
2019-04-10T07:34:04.143Z,6.34
2019-04-10T07:35:04.159Z,6.26
2019-04-10T07:36:08.553Z,6.25
2019-04-10T07:37:05.741Z,6.20
2019-04-10T07:38:04.123Z,6.28
2019-04-10T07:39:04.119Z,6.35
2019-04-10T07:40:04.611Z,6.65
2019-04-10T07:41:11.128Z,6.85
2019-04-10T07:42:06.134Z,6.74
2019-04-10T07:43:04.246Z,6.62
2019-04-10T07:44:04.041Z,6.62
2019-04-10T07:45:04.076Z,6.38
2019-04-10T07:46:04.012Z,6.29
2019-04-10T07:47:04.792Z,6.26
2019-04-10T07:48:04.523Z,6.26
2019-04-10T07:49:04.002Z,6.15
2019-04-10T07:50:05.122Z,6.20
2019-04-10T07:51:04.887Z,6.26
2019-04-10T07:52:04.831Z,6.25
2019-04-10T07:53:04.036Z,6.46
2019-04-10T07:54:04.128Z,6.74
2019-04-10T07:55:04.482Z,6.82
2019-04-10T07:56:07.609Z,6.92
2019-04-10T07:57:04.897Z,7.04
2019-04-10T07:58:04.792Z,6.87
2019-04-10T07:59:04.631Z,6.90
2019-04-10T08:00:04.034Z,6.95
2019-04-10T08:01:05.112Z,6.89
2019-04-10T08:02:05.924Z,6.93
2019-04-10T08:03:04.180Z,7.07
2019-04-10T08:04:04.158Z,7.19
2019-04-10T08:05:04.345Z,7.14
2019-04-10T08:06:04.172Z,7.18
2019-04-10T08:07:05.078Z,7.29
2019-04-10T08:08:05.029Z,7.40
2019-04-10T08:09:04.056Z,7.51
2019-04-10T08:10:03.782Z,7.61
2019-04-10T08:11:04.933Z,7.59
2019-04-10T08:12:03.774Z,7.55
2019-04-10T08:13:04.582Z,7.48
2019-04-10T08:14:06.658Z,7.59
2019-04-10T08:15:04.905Z,7.56
2019-04-10T08:16:03.764Z,7.64
2019-04-10T08:17:03.830Z,7.72
2019-04-10T08:18:04.579Z,7.85
2019-04-10T08:19:04.111Z,7.88
2019-04-10T08:20:03.826Z,8.05
2019-04-10T08:21:04.932Z,8.03
2019-04-10T08:22:03.760Z,7.93
2019-04-10T08:23:03.711Z,7.91
2019-04-10T08:24:03.763Z,7.96
2019-04-10T08:25:04.398Z,7.95
2019-04-10T08:26:03.661Z,7.98
2019-04-10T08:27:05.354Z,7.91
2019-04-10T08:28:03.614Z,7.95
2019-04-10T08:29:03.683Z,7.99
2019-04-10T08:30:03.718Z,8.02
2019-04-10T08:31:04.421Z,8.03
2019-04-10T08:32:03.565Z,7.98
2019-04-10T08:33:05.924Z,7.91
2019-04-10T08:34:03.515Z,7.90
2019-04-10T08:35:04.559Z,7.95
2019-04-10T08:36:03.498Z,7.81
2019-04-10T08:37:03.822Z,7.66
2019-04-10T08:38:03.496Z,7.70
2019-04-10T08:39:04.628Z,7.70
2019-04-10T08:40:03.480Z,7.77
2019-04-10T08:41:03.459Z,7.90
2019-04-10T08:42:03.460Z,8.16
2019-04-10T08:43:04.161Z,8.50
2019-04-10T08:44:04.351Z,8.78
2019-04-10T08:45:03.426Z,8.89
2019-04-10T08:46:03.531Z,9.11
2019-04-10T08:47:03.475Z,9.12
2019-04-10T08:48:03.632Z,9.00
2019-04-10T08:49:03.562Z,8.96
2019-04-10T08:50:03.634Z,9.11
2019-04-10T08:51:03.349Z,9.30
2019-04-10T08:52:04.010Z,9.31
2019-04-10T08:53:04.142Z,9.45
2019-04-10T08:54:03.323Z,9.39
2019-04-10T08:55:03.851Z,9.45
2019-04-10T08:56:04.418Z,9.52
2019-04-10T08:57:03.346Z,9.76
2019-04-10T08:58:03.265Z,9.52
2019-04-10T08:59:03.456Z,9.51
2019-04-10T09:00:03.239Z,9.56
2019-04-10T09:01:03.225Z,9.85
2019-04-10T09:02:03.975Z,10.06
2019-04-10T09:03:03.377Z,10.39
2019-04-10T09:04:03.618Z,10.27
2019-04-10T09:05:03.632Z,10.53
2019-04-10T09:06:03.201Z,10.25
2019-04-10T09:07:04.283Z,10.39
2019-04-10T09:08:04.421Z,10.62
2019-04-10T09:09:03.539Z,10.83
2019-04-10T09:10:03.800Z,10.92
2019-04-10T09:11:03.133Z,10.68
2019-04-10T09:12:03.104Z,10.65
2019-04-10T09:13:04.165Z,10.58
2019-04-10T09:14:03.218Z,10.48
2019-04-10T09:15:03.077Z,10.61
2019-04-10T09:16:03.079Z,10.68
2019-04-10T09:17:03.093Z,10.59
2019-04-10T09:18:04.058Z,10.62
2019-04-10T09:19:03.510Z,10.64
2019-04-10T09:20:03.044Z,10.76
2019-04-10T09:21:03.125Z,10.80
2019-04-10T09:22:03.772Z,10.97
2019-04-10T09:23:21.531Z,10.90
2019-04-10T09:24:04.726Z,10.95
2019-04-10T09:25:03.007Z,11.04
2019-04-10T09:26:03.823Z,11.15
2019-04-10T09:27:03.013Z,11.12
2019-04-10T09:28:02.956Z,11.59
2019-04-10T09:29:02.930Z,11.68
2019-04-10T09:30:02.946Z,11.73
2019-04-10T09:31:02.920Z,12.00
2019-04-10T09:32:02.998Z,12.05
2019-04-10T09:33:14.746Z,12.03
2019-04-10T09:34:03.895Z,11.86
2019-04-10T09:35:02.893Z,11.99
2019-04-10T09:36:02.865Z,12.10
2019-04-10T09:37:03.860Z,11.67
2019-04-10T09:38:02.845Z,11.77
2019-04-10T09:39:03.216Z,11.60
2019-04-10T09:40:03.610Z,11.43
2019-04-10T09:41:03.706Z,11.49
2019-04-10T09:42:03.388Z,11.34
2019-04-10T09:43:02.992Z,11.48
2019-04-10T09:44:04.497Z,11.67
2019-04-10T09:45:02.796Z,11.89
2019-04-10T09:46:04.266Z,12.02
2019-04-10T09:47:02.812Z,11.93
2019-04-10T09:48:02.737Z,11.97
2019-04-10T09:49:02.904Z,11.74
2019-04-10T09:50:02.929Z,11.55
2019-04-10T09:51:02.809Z,11.49
2019-04-10T09:52:02.796Z,11.41
2019-04-10T09:53:02.703Z,11.48
2019-04-10T09:54:03.609Z,11.60
2019-04-10T09:55:03.156Z,11.62
2019-04-10T09:56:03.202Z,11.34
2019-04-10T09:57:03.346Z,11.18
2019-04-10T09:58:02.946Z,11.07
2019-04-10T09:59:02.814Z,10.57
2019-04-10T10:00:03.137Z,10.38
2019-04-10T10:01:03.097Z,10.57
2019-04-10T10:02:02.753Z,10.64
2019-04-10T10:03:03.581Z,10.67
2019-04-10T10:04:02.600Z,10.69
2019-04-10T10:05:02.553Z,10.77
2019-04-10T10:06:03.497Z,10.95
2019-04-10T10:07:02.542Z,11.25
2019-04-10T10:08:02.611Z,11.35
2019-04-10T10:09:02.518Z,11.45
2019-04-10T10:10:02.511Z,11.49
2019-04-10T10:11:02.494Z,11.45
2019-04-10T10:12:03.161Z,11.55
2019-04-10T10:13:03.302Z,11.49
2019-04-10T10:14:02.493Z,11.77
2019-04-10T10:15:02.578Z,11.86
2019-04-10T10:16:02.889Z,12.14
2019-04-10T10:17:02.469Z,12.20
2019-04-10T10:18:03.292Z,12.35
2019-04-10T10:19:02.670Z,12.29
2019-04-10T10:20:03.625Z,12.25
2019-04-10T10:21:02.411Z,12.32
2019-04-10T10:22:04.669Z,12.30
2019-04-10T10:23:03.312Z,12.33
2019-04-10T10:24:02.465Z,12.11
2019-04-10T10:25:02.942Z,11.96
2019-04-10T10:26:02.342Z,12.03
2019-04-10T10:27:02.315Z,11.83
2019-04-10T10:28:02.834Z,11.77
2019-04-10T10:29:02.718Z,11.63
2019-04-10T10:30:02.309Z,11.88
2019-04-10T10:31:02.274Z,11.88
2019-04-10T10:32:02.578Z,12.10
2019-04-10T10:33:03.512Z,11.93
2019-04-10T10:34:02.250Z,11.93
2019-04-10T10:35:03.141Z,11.74
2019-04-10T10:36:03.324Z,11.77
2019-04-10T10:37:03.897Z,11.71
2019-04-10T10:38:03.817Z,11.68
2019-04-10T10:39:09.625Z,11.67
2019-04-10T10:40:03.470Z,11.70
2019-04-10T10:41:02.161Z,11.74
2019-04-10T10:42:03.209Z,11.89
2019-04-10T10:43:02.415Z,12.00
2019-04-10T10:44:02.144Z,12.02
2019-04-10T10:45:02.897Z,11.89
2019-04-10T10:46:03.003Z,12.05
2019-04-10T10:48:31.565Z,12.02
2019-04-10T10:49:30.671Z,11.95
2019-04-10T10:50:31.147Z,12.00
2019-04-10T10:51:30.901Z,11.97
2019-04-10T10:52:31.340Z,12.05
2019-04-10T10:53:31.016Z,11.89
2019-04-10T10:54:31.124Z,11.78
2019-04-10T10:55:31.749Z,11.77
2019-04-10T10:56:32.480Z,11.65
2019-04-10T10:57:31.162Z,11.73
2019-04-10T10:58:30.593Z,11.86
2019-04-10T10:59:30.497Z,12.00
2019-04-10T11:00:31.433Z,12.00
2019-04-10T11:01:31.627Z,11.96
2019-04-10T11:02:31.597Z,11.78
2019-04-10T11:03:30.557Z,11.67
2019-04-10T11:04:31.563Z,11.56
2019-04-10T11:05:31.839Z,11.45
2019-04-10T11:06:31.023Z,11.48
2019-04-10T11:07:31.287Z,11.35
2019-04-10T11:08:31.730Z,11.41
2019-04-10T11:09:30.409Z,11.35
2019-04-10T11:10:31.232Z,11.26
2019-04-10T11:11:30.757Z,11.31
2019-04-10T11:12:30.539Z,11.56
2019-04-10T11:13:30.883Z,11.68
2019-04-10T11:14:31.495Z,11.76
2019-04-10T11:15:30.289Z,11.91
2019-04-10T11:16:31.311Z,12.02
2019-04-10T11:17:30.983Z,11.96
2019-04-10T11:18:30.827Z,11.99
2019-04-10T11:19:31.197Z,12.03
2019-04-10T11:20:32.200Z,11.91
2019-04-10T11:21:30.416Z,12.08
2019-04-10T11:22:31.580Z,12.17
2019-04-10T11:23:30.985Z,12.37
2019-04-10T11:24:31.553Z,12.54
2019-04-10T11:25:30.271Z,12.78
2019-04-10T11:26:31.369Z,12.78
2019-04-10T11:27:31.655Z,12.73
2019-04-10T11:28:30.700Z,12.58
2019-04-10T11:29:31.454Z,12.40
2019-04-10T11:30:30.162Z,12.36
2019-04-10T11:31:31.370Z,12.26
2019-04-10T11:32:30.373Z,12.32
2019-04-10T11:33:30.693Z,12.26
2019-04-10T11:34:30.608Z,12.45
2019-04-10T11:35:31.665Z,12.39
2019-04-10T11:36:30.391Z,12.39
2019-04-10T11:37:36.532Z,12.45
2019-04-10T11:38:33.585Z,12.35
2019-04-10T11:39:33.039Z,12.50
2019-04-10T11:40:34.134Z,12.32
2019-04-10T11:41:31.176Z,12.36
2019-04-10T11:42:32.229Z,12.26
2019-04-10T11:43:30.514Z,12.23
2019-04-10T11:44:30.019Z,12.15
2019-04-10T11:45:38.030Z,12.12
2019-04-10T11:46:32.547Z,12.15
2019-04-10T11:47:31.868Z,12.02
2019-04-10T11:48:30.792Z,12.08
2019-04-10T11:49:32.898Z,12.00
2019-04-10T11:50:30.129Z,12.03
2019-04-10T11:51:31.859Z,11.93
2019-04-10T11:52:36.271Z,11.86
2019-04-10T11:53:35.311Z,11.63
2019-04-10T11:54:32.790Z,11.67
2019-04-10T11:55:31.613Z,11.62
2019-04-10T11:56:30.264Z,11.68
2019-04-10T11:57:32.125Z,11.67
2019-04-10T11:58:29.879Z,11.77
2019-04-10T11:59:32.910Z,11.86
2019-04-10T12:00:32.597Z,11.93
2019-04-10T12:01:31.089Z,11.97
2019-04-10T12:02:33.376Z,11.95
2019-04-10T12:03:31.345Z,11.99
2019-04-10T12:04:33.570Z,11.97
2019-04-10T12:05:31.707Z,11.97
2019-04-10T12:06:33.809Z,11.97
2019-04-10T12:08:55.248Z,11.93
2019-04-10T12:11:30.991Z,11.70
2019-04-10T12:12:29.935Z,11.53
2019-04-10T12:13:30.332Z,11.55
2019-04-10T12:14:30.008Z,11.35
2019-04-10T12:15:29.663Z,11.30
2019-04-10T12:16:29.726Z,11.30
2019-04-10T12:17:31.497Z,11.31
2019-04-10T12:18:32.859Z,11.51
2019-04-10T12:19:31.079Z,12.26
2019-04-10T12:20:29.700Z,12.98
2019-04-10T12:21:29.689Z,13.86
2019-04-10T12:22:29.820Z,14.22
2019-04-10T12:23:29.560Z,14.30
2019-04-10T12:24:30.047Z,14.73
2019-04-10T12:25:29.605Z,15.14
2019-04-10T12:26:29.747Z,14.51
2019-04-10T12:27:29.664Z,14.13
2019-04-10T12:28:29.833Z,13.85
2019-04-10T12:29:29.543Z,13.46
2019-04-10T12:30:29.490Z,13.03
2019-04-10T12:31:30.169Z,12.87
2019-04-10T12:32:30.417Z,14.15
2019-04-10T12:33:29.702Z,15.05
2019-04-10T12:34:29.485Z,15.70
2019-04-10T12:35:30.075Z,16.54
2019-04-10T12:36:29.492Z,17.24
2019-04-10T12:37:30.502Z,17.16
2019-04-10T12:38:30.078Z,17.80
2019-04-10T12:39:30.533Z,18.52
2019-04-10T12:40:29.437Z,19.11
2019-04-10T12:41:29.457Z,18.85
2019-04-10T12:42:32.287Z,18.28
2019-04-10T12:43:30.005Z,17.75
2019-04-10T12:44:30.010Z,17.12
2019-04-10T12:45:30.453Z,16.32
2019-04-10T12:46:29.310Z,15.69
2019-04-10T12:47:30.028Z,15.32
2019-04-10T12:48:30.433Z,14.97
2019-04-10T12:49:29.742Z,14.68
2019-04-10T12:50:29.309Z,14.53
2019-04-10T12:51:29.756Z,14.38
2019-04-10T12:52:30.249Z,14.15
2019-04-10T12:53:30.009Z,14.20
2019-04-10T12:54:29.981Z,13.98
2019-04-10T12:55:29.367Z,13.98
2019-04-10T12:56:30.318Z,14.43
2019-04-10T12:57:29.199Z,15.55
2019-04-10T12:58:29.238Z,16.92
2019-04-10T12:59:29.261Z,17.23
2019-04-10T13:00:29.343Z,16.91
2019-04-10T13:01:29.262Z,17.87
2019-04-10T13:02:30.202Z,18.63
2019-04-10T13:03:29.393Z,19.30
2019-04-10T13:04:30.194Z,19.74
2019-04-10T13:05:29.355Z,20.36
2019-04-10T13:06:29.742Z,20.24
2019-04-10T13:07:29.703Z,20.44
2019-04-10T13:08:47.278Z,20.82
2019-04-10T13:09:30.108Z,21.03
2019-04-10T13:10:29.483Z,20.78
2019-04-10T13:11:29.293Z,19.84
2019-04-10T13:12:29.512Z,18.81
2019-04-10T13:13:30.242Z,18.02
2019-04-10T13:14:29.065Z,17.44